Time;durP1;ratioP1;P1;durP2;ratioP2;P2;SDS_P1;SDS_P2;PMS_P1;PMS_P2;Temp;Humidity;BMP_temperature;BMP_pressure;BME280_temperature;BME280_humidity;BME280_pressure;Samples;Min_cycle;Max_cycle;Signal;HPM_P1;HPM_P2
2021/03/11 00:00:19;;;;;;;382.98;191.50;;;102.40;1356.80;;;;;;4860983;29;20126;-69
2021/03/11 00:02:45;;;;;;;403.80;193.73;;;102.40;1356.80;;;;;;4861134;29;20112;-69
2021/03/11 00:05:13;;;;;;;388.02;193.82;;;102.40;1356.80;;;;;;4859430;29;20198;-69
2021/03/11 00:07:39;;;;;;;387.25;190.65;;;102.40;1356.80;;;;;;4860967;29;20384;-69
2021/03/11 00:10:07;;;;;;;390.02;194.70;;;77.70;1356.80;;;;;;4860860;29;20029;-68
2021/03/11 00:12:33;;;;;;;372.45;185.55;;;77.70;1356.80;;;;;;4860598;29;20373;-68
2021/03/11 00:14:59;;;;;;;374.52;184.25;;;77.70;1356.80;;;;;;4863564;29;20456;-68
2021/03/11 00:17:25;;;;;;;378.45;187.82;;;77.70;1382.40;;;;;;4864251;29;20048;-68
2021/03/11 00:19:51;;;;;;;361.02;178.63;;;77.70;1382.40;;;;;;4864048;29;20041;-67
2021/03/11 00:22:17;;;;;;;364.27;180.88;;;77.60;1382.40;;;;;;4864292;29;20037;-67
2021/03/11 00:24:42;;;;;;;354.80;177.10;;;77.60;1382.40;;;;;;4864413;29;20030;-67
2021/03/11 00:27:08;;;;;;;319.40;155.75;;;77.60;1408.00;;;;;;4862656;29;20049;-68
2021/03/11 00:29:34;;;;;;;291.27;136.40;;;77.60;1408.00;;;;;;4864330;29;20069;-67
2021/03/11 00:31:59;;;;;;;261.20;125.05;;;77.60;1433.60;;;;;;4863798;29;20053;-71
2021/03/11 00:34:26;;;;;;;232.57;115.15;;;77.60;1433.60;;;;;;4864279;29;20032;-67
2021/03/11 00:36:52;;;;;;;215.50;107.65;;;77.60;1433.60;;;;;;4863880;29;20097;-67
2021/03/11 00:39:18;;;;;;;219.13;107.32;;;77.60;1459.20;;;;;;4864107;29;20033;-67
2021/03/11 00:41:44;;;;;;;229.10;106.28;;;77.60;1459.20;;;;;;4863811;29;20502;-67
2021/03/11 00:44:10;;;;;;;209.70;103.60;;;77.60;1459.20;;;;;;4864048;29;20033;-68
2021/03/11 00:46:36;;;;;;;206.13;102.07;;;77.60;1459.20;;;;;;4864424;29;20038;-68
2021/03/11 00:49:01;;;;;;;203.38;101.78;;;77.50;1459.20;;;;;;4864016;29;20041;-68
2021/03/11 00:51:27;;;;;;;193.57;91.95;;;77.50;1459.20;;;;;;4863925;29;20029;-68
2021/03/11 00:53:53;;;;;;;187.30;90.47;;;77.50;1459.20;;;;;;4863924;29;20029;-68
2021/03/11 00:56:19;;;;;;;160.82;80.85;;;77.50;1459.20;;;;;;4863541;29;20037;-67
2021/03/11 00:58:44;;;;;;;137.25;69.88;;;77.50;1459.20;;;;;;4863542;29;20030;-67
2021/03/11 01:01:10;;;;;;;126.97;63.28;;;77.50;1459.20;;;;;;4863741;29;20033;-68
2021/03/11 01:03:36;;;;;;;129.00;67.75;;;77.40;1459.20;;;;;;4863703;29;20407;-68
2021/03/11 01:06:01;;;;;;;133.60;65.38;;;77.40;1459.20;;;;;;4863601;29;20465;-69
2021/03/11 01:08:27;;;;;;;129.20;65.15;;;77.40;1459.20;;;;;;4863470;29;20050;-70
2021/03/11 01:10:53;;;;;;;146.68;74.68;;;77.40;1459.20;;;;;;4863434;29;20057;-69
2021/03/11 01:13:19;;;;;;;172.73;81.00;;;77.40;1459.20;;;;;;4863516;29;20040;-70
2021/03/11 01:15:45;;;;;;;163.60;77.10;;;77.40;1459.20;;;;;;4863385;29;20036;-69
2021/03/11 01:18:12;;;;;;;146.55;72.05;;;77.30;1459.20;;;;;;4863426;29;20400;-69
2021/03/11 01:20:39;;;;;;;135.75;65.53;;;77.30;1459.20;;;;;;4863316;29;20030;-68
2021/03/11 01:23:05;;;;;;;128.15;64.13;;;77.30;1459.20;;;;;;4863391;29;20373;-68
2021/03/11 01:25:31;;;;;;;119.78;60.65;;;77.30;1459.20;;;;;;4862566;29;20033;-67
2021/03/11 01:27:57;;;;;;;134.35;60.85;;;77.30;1459.20;;;;;;4862999;29;20490;-68
2021/03/11 01:30:23;;;;;;;112.80;56.03;;;77.30;1459.20;;;;;;4863360;29;20033;-67
2021/03/11 01:32:49;;;;;;;113.90;59.50;;;77.30;1459.20;;;;;;4863062;29;20029;-67
2021/03/11 01:35:15;;;;;;;105.45;53.35;;;77.20;1459.20;;;;;;4862819;29;20515;-67
2021/03/11 01:37:41;;;;;;;111.70;56.63;;;77.20;1433.60;;;;;;4863051;29;20097;-68
2021/03/11 01:40:08;;;;;;;112.30;58.80;;;77.20;1433.60;;;;;;4862955;29;20026;-68
2021/03/11 01:42:35;;;;;;;105.43;54.45;;;77.10;1459.20;;;;;;4862454;29;20041;-67
2021/03/11 01:45:02;;;;;;;103.43;52.78;;;77.10;1459.20;;;;;;4863038;29;20044;-67
2021/03/11 01:47:28;;;;;;;101.47;53.30;;;77.10;1459.20;;;;;;4863014;29;20416;-72
2021/03/11 01:49:54;;;;;;;110.15;54.63;;;77.10;1459.20;;;;;;4862655;29;20048;-72
2021/03/11 01:52:20;;;;;;;100.93;52.45;;;77.10;1459.20;;;;;;4862684;29;20034;-69
2021/03/11 01:54:46;;;;;;;98.78;51.60;;;77.00;1459.20;;;;;;4862718;29;20025;-71
2021/03/11 01:57:13;;;;;;;103.75;52.80;;;77.00;1459.20;;;;;;4862702;29;20383;-69
2021/03/11 01:59:39;;;;;;;106.50;52.65;;;77.00;1459.20;;;;;;4862712;29;20037;-68
2021/03/11 02:02:05;;;;;;;100.38;50.60;;;77.00;1459.20;;;;;;4862631;29;20065;-67
2021/03/11 02:04:31;;;;;;;96.38;48.75;;;77.00;1459.20;;;;;;4862567;29;20029;-66
2021/03/11 02:06:58;;;;;;;96.07;49.00;;;77.00;1459.20;;;;;;4862429;29;20034;-67
2021/03/11 02:09:24;;;;;;;96.25;48.67;;;77.00;1459.20;;;;;;4862441;29;20034;-67
2021/03/11 02:12:03;;;;;;;95.78;48.72;;;76.90;1459.20;;;;;;4862306;29;20037;-68
2021/03/11 02:14:55;;;;;;;94.35;49.13;;;76.90;1459.20;;;;;;4862453;29;20029;-68
2021/03/11 02:17:28;;;;;;;89.28;46.53;;;76.90;1459.20;;;;;;4859464;29;20131;-68
2021/03/11 02:20:21;;;;;;;91.25;47.47;;;76.90;1459.20;;;;;;4862202;29;20511;-68
2021/03/11 02:23:19;;;;;;;96.43;49.10;;;76.90;1459.20;;;;;;4862144;29;20060;-67
2021/03/11 02:25:57;;;;;;;93.43;49.15;;;76.80;1459.20;;;;;;4861733;29;20044;-67
2021/03/11 02:28:35;;;;;;;100.32;52.03;;;76.80;1459.20;;;;;;4862477;29;20437;-67
2021/03/11 02:31:02;;;;;;;103.75;53.13;;;76.80;1459.20;;;;;;4862183;29;20030;-68
2021/03/11 02:33:30;;;;;;;104.00;52.10;;;76.80;1459.20;;;;;;4862048;29;20060;-67
2021/03/11 02:35:58;;;;;;;96.68;49.17;;;52.10;1459.20;;;;;;4861343;29;20117;-68
2021/03/11 02:38:26;;;;;;;96.50;47.78;;;52.10;1484.80;;;;;;4861703;29;20487;-67
2021/03/11 02:40:58;;;;;;;96.63;46.97;;;52.10;1484.80;;;;;;4861964;29;20132;-69
2021/03/11 02:43:25;;;;;;;94.65;46.83;;;52.10;1484.80;;;;;;4861797;29;20108;-70
2021/03/11 02:45:51;;;;;;;84.97;45.35;;;52.10;1484.80;;;;;;4861769;29;20066;-70
2021/03/11 02:48:17;;;;;;;80.30;43.13;;;52.00;1484.80;;;;;;4861950;29;20037;-70
2021/03/11 02:50:43;;;;;;;83.32;42.70;;;52.00;1484.80;;;;;;4861772;29;20034;-70
2021/03/11 02:53:11;;;;;;;85.18;43.13;;;52.00;1484.80;;;;;;4861780;29;20037;-70
2021/03/11 02:55:40;;;;;;;80.07;38.80;;;52.00;1459.20;;;;;;4861726;29;20036;-70
2021/03/11 02:58:09;;;;;;;66.57;34.70;;;51.90;1459.20;;;;;;4861773;29;20022;-70
2021/03/11 03:00:36;;;;;;;61.70;34.67;;;52.00;1484.80;;;;;;4861513;29;20062;-71
2021/03/11 03:03:02;;;;;;;63.65;32.97;;;51.90;1484.80;;;;;;4861798;29;20037;-71
2021/03/11 03:05:29;;;;;;;63.25;32.75;;;51.90;1484.80;;;;;;4861496;29;20029;-71
2021/03/11 03:07:57;;;;;;;63.08;32.63;;;51.90;1459.20;;;;;;4861142;29;20025;-67
2021/03/11 03:10:25;;;;;;;56.10;31.02;;;51.90;1484.80;;;;;;4861581;29;20484;-67
2021/03/11 03:12:54;;;;;;;60.70;33.17;;;51.90;1484.80;;;;;;4861514;29;20065;-69
2021/03/11 03:15:21;;;;;;;59.92;32.83;;;51.90;1484.80;;;;;;4861537;29;20421;-66
2021/03/11 03:17:48;;;;;;;66.85;34.35;;;51.80;1484.80;;;;;;4861413;29;20045;-67
2021/03/11 03:20:16;;;;;;;65.57;35.85;;;51.80;1484.80;;;;;;4861479;29;20037;-66
2021/03/11 03:22:42;;;;;;;66.03;35.15;;;51.80;1510.40;;;;;;4861310;29;20045;-66
2021/03/11 03:25:12;;;;;;;68.95;35.47;;;51.80;1510.40;;;;;;4861472;29;20082;-66
2021/03/11 03:27:39;;;;;;;67.53;37.08;;;51.80;1510.40;;;;;;4861530;29;20044;-66
2021/03/11 03:30:11;;;;;;;69.80;38.63;;;51.70;1510.40;;;;;;4861375;29;20022;-66
2021/03/11 03:32:37;;;;;;;73.35;39.38;;;51.70;1510.40;;;;;;4861308;29;20041;-64
2021/03/11 03:35:07;;;;;;;79.45;40.25;;;51.70;1510.40;;;;;;4861211;29;20053;-67
2021/03/11 03:37:34;;;;;;;72.22;38.38;;;51.70;1510.40;;;;;;4861149;29;20052;-66
2021/03/11 03:40:05;;;;;;;81.28;40.83;;;51.70;1510.40;;;;;;4861400;29;20077;-69
2021/03/11 03:42:37;;;;;;;81.90;40.63;;;51.70;1484.80;;;;;;4861364;29;20034;-72
2021/03/11 03:45:06;;;;;;;79.85;41.63;;;51.60;1510.40;;;;;;4861247;29;20044;-70
2021/03/11 03:47:32;;;;;;;72.32;38.45;;;51.70;1484.80;;;;;;4862072;29;20029;-67
2021/03/11 03:49:58;;;;;;;73.35;39.88;;;51.60;1484.80;;;;;;4865002;29;20494;-69
2021/03/11 03:52:27;;;;;;;81.50;41.22;;;51.60;1510.40;;;;;;4864873;29;20030;-67
2021/03/11 03:54:53;;;;;;;72.78;38.10;;;51.60;1510.40;;;;;;4863168;29;20037;-66
2021/03/11 03:57:21;;;;;;;79.97;43.55;;;51.60;1510.40;;;;;;4864751;29;20056;-67
2021/03/11 03:59:50;;;;;;;76.28;38.83;;;51.50;1536.00;;;;;;4864525;29;20180;-66
2021/03/11 04:02:17;;;;;;;72.38;39.08;;;51.50;1510.40;;;;;;4864723;29;20034;-66
2021/03/11 04:04:49;;;;;;;82.65;39.90;;;51.50;1510.40;;;;;;4864863;29;20161;-67
2021/03/11 04:07:24;;;;;;;78.38;40.63;;;51.50;1536.00;;;;;;4864786;29;20030;-69
2021/03/11 04:09:50;;;;;;;;;;;51.50;1536.00;;;;;;4865178;29;20105;-68
2021/03/11 04:12:18;;;;;;;77.43;37.17;;;51.50;1510.40;;;;;;4864604;29;19908;-68
2021/03/11 04:14:45;;;;;;;83.18;41.88;;;51.50;1715.20;;;;;;4864552;29;20037;-68
2021/03/11 04:17:12;;;;;;;85.15;41.05;;;51.40;1587.20;;;;;;4862811;29;20464;-68
2021/03/11 04:19:40;;;;;;;82.78;43.22;;;51.40;1587.20;;;;;;4864479;29;20472;-68
2021/03/11 04:22:06;;;;;;;89.30;44.85;;;51.40;1561.60;;;;;;4864387;29;20035;-67
2021/03/11 04:24:34;;;;;;;94.15;44.40;;;51.30;1561.60;;;;;;4864276;29;20033;-68
2021/03/11 04:27:06;;;;;;;91.20;45.75;;;51.30;1561.60;;;;;;4864506;29;20025;-68
2021/03/11 04:29:33;;;;;;;92.13;46.35;;;51.30;1536.00;;;;;;4864221;29;20065;-68
2021/03/11 04:31:59;;;;;;;96.72;46.53;;;51.30;1536.00;;;;;;4864192;29;20025;-69
2021/03/11 04:34:26;;;;;;;100.68;47.15;;;51.30;1536.00;;;;;;4863810;29;20029;-68
2021/03/11 04:36:53;;;;;;;99.78;44.75;;;51.20;1536.00;;;;;;4863931;29;20037;-65
2021/03/11 04:39:20;;;;;;;102.00;47.00;;;51.20;1536.00;;;;;;4864089;29;20125;-68
2021/03/11 04:41:47;;;;;;;101.47;46.65;;;51.20;1536.00;;;;;;4863899;29;20041;-68
2021/03/11 04:44:14;;;;;;;101.88;48.38;;;51.20;1561.60;;;;;;4863953;29;20158;-66
2021/03/11 04:46:40;;;;;;;103.20;46.50;;;51.20;1536.00;;;;;;4863968;29;20048;-68
2021/03/11 04:49:09;;;;;;;108.32;47.10;;;51.20;1536.00;;;;;;4863924;29;20025;-68
2021/03/11 04:51:35;;;;;;;109.95;48.00;;;51.20;1536.00;;;;;;4863261;29;20480;-67
2021/03/11 04:54:01;;;;;;;118.57;49.08;;;51.20;1536.00;;;;;;4864099;29;20029;-68
2021/03/11 04:56:28;;;;;;;90.28;45.75;;;51.20;1536.00;;;;;;4863704;29;20064;-68
2021/03/11 04:58:55;;;;;;;103.43;48.22;;;51.20;1536.00;;;;;;4863352;29;20029;-68
2021/03/11 05:01:24;;;;;;;116.45;48.13;;;51.20;1536.00;;;;;;4863577;29;20112;-68
2021/03/11 05:03:51;;;;;;;100.65;47.22;;;51.20;1536.00;;;;;;4863549;29;20030;-67
2021/03/11 05:06:17;;;;;;;120.95;54.47;;;51.20;1536.00;;;;;;4862950;29;20033;-67
2021/03/11 05:08:43;;;;;;;139.07;65.32;;;51.20;1536.00;;;;;;4863415;29;20029;-67
2021/03/11 05:11:15;;;;;;;146.35;66.57;;;51.20;1536.00;;;;;;4863543;29;20117;-68
2021/03/11 05:13:41;;;;;;;130.25;60.70;;;26.50;1510.40;;;;;;4863527;29;20033;-68
2021/03/11 05:16:07;;;;;;;112.10;54.83;;;51.20;1536.00;;;;;;4863305;29;20380;-67
2021/03/11 05:18:33;;;;;;;106.25;48.55;;;51.20;1561.60;;;;;;4863385;29;20033;-67
2021/03/11 05:20:59;;;;;;;111.65;53.85;;;51.20;1561.60;;;;;;4863177;29;20468;-68
2021/03/11 05:23:25;;;;;;;160.65;67.45;;;51.20;1561.60;;;;;;4863282;29;20029;-68
2021/03/11 05:25:55;;;;;;;138.10;62.28;;;51.20;1561.60;;;;;;4863125;29;20029;-68
2021/03/11 05:28:21;;;;;;;109.20;54.70;;;51.20;1561.60;;;;;;4863228;29;20053;-61
2021/03/11 05:30:48;;;;;;;97.35;48.22;;;51.20;1561.60;;;;;;4863110;29;20033;-68
2021/03/11 05:33:13;;;;;;;85.45;44.50;;;51.30;1536.00;;;;;;4863117;29;20085;-68
2021/03/11 05:35:40;;;;;;;87.88;41.70;;;51.20;1561.60;;;;;;4862644;29;20091;-66
2021/03/11 05:38:06;;;;;;;73.25;37.85;;;51.30;1561.60;;;;;;4863138;29;20361;-67
2021/03/11 05:40:33;;;;;;;72.13;38.47;;;51.40;1561.60;;;;;;4863164;29;20033;-67
2021/03/11 05:43:01;;;;;;;76.07;37.75;;;51.40;1561.60;;;;;;4862994;29;20476;-67
2021/03/11 05:45:27;;;;;;;79.15;38.95;;;51.40;1561.60;;;;;;4862984;29;20412;-67
2021/03/11 05:47:54;;;;;;;93.32;43.78;;;51.50;1561.60;;;;;;4862925;29;20041;-67
2021/03/11 05:50:20;;;;;;;98.82;48.33;;;51.50;1561.60;;;;;;4859725;29;20026;-65
2021/03/11 05:52:47;;;;;;;102.65;49.13;;;51.50;1561.60;;;;;;4861305;29;20109;-64
2021/03/11 05:55:13;;;;;;;105.00;49.67;;;51.50;1587.20;;;;;;4861928;29;20036;-66
2021/03/11 05:57:43;;;;;;;91.45;45.55;;;51.40;1587.20;;;;;;4861843;29;20034;-67
2021/03/11 06:00:12;;;;;;;86.70;42.25;;;51.50;1587.20;;;;;;4861638;29;20543;-67
2021/03/11 06:02:39;;;;;;;67.07;37.75;;;51.40;1587.20;;;;;;4862660;29;20033;-67
2021/03/11 06:05:06;;;;;;;70.10;37.45;;;51.50;1587.20;;;;;;4862438;29;20041;-67
2021/03/11 06:07:32;;;;;;;63.30;34.85;;;51.60;1561.60;;;;;;4862996;29;20461;-68
2021/03/11 06:10:03;;;;;;;63.08;33.33;;;51.70;1561.60;;;;;;4862362;29;20033;-67
2021/03/11 06:12:30;;;;;;;59.08;30.05;;;51.80;1536.00;;;;;;4862567;29;20379;-67
2021/03/11 06:15:25;;;;;;;55.97;29.13;;;51.80;1561.60;;;;;;4862036;29;20484;-67
2021/03/11 06:17:52;;;;;;;64.50;28.75;;;51.90;1536.00;;;;;;4805845;29;20055;-68
2021/03/11 06:20:18;;;;;;;53.78;27.45;;;51.90;1561.60;;;;;;4805496;29;20536;-68
2021/03/11 06:22:44;;;;;;;59.38;29.02;;;52.00;1536.00;;;;;;4805366;29;20047;-68
2021/03/11 06:25:10;;;;;;;58.50;30.42;;;52.00;1536.00;;;;;;4805457;29;20114;-68
2021/03/11 06:27:36;;;;;;;55.88;30.00;;;52.10;1510.40;;;;;;4805344;29;20035;-67
2021/03/11 06:30:03;;;;;;;57.58;31.98;;;52.10;1536.00;;;;;;4805431;29;20043;-68
2021/03/11 06:32:29;;;;;;;55.90;29.67;;;76.80;1510.40;;;;;;4805223;29;20065;-65
2021/03/11 06:34:55;;;;;;;62.28;31.98;;;76.80;1536.00;;;;;;4804801;29;20074;-68
2021/03/11 06:37:40;;;;;;;55.72;30.75;;;77.00;1510.40;;;;;;4804940;29;20081;-68
2021/03/11 06:40:13;;;;;;;52.35;29.17;;;77.00;1510.40;;;;;;4805219;29;20470;-67
2021/03/11 06:42:39;;;;;;;56.15;28.75;;;77.10;1510.40;;;;;;4805098;29;20046;-66
2021/03/11 06:45:20;;;;;;;54.67;27.23;;;77.10;1510.40;;;;;;4804939;29;20378;-66
2021/03/11 06:47:47;;;;;;;55.90;28.83;;;77.30;1510.40;;;;;;4804791;29;20470;-67
2021/03/11 06:50:12;;;;;;;57.20;29.92;;;77.30;1510.40;;;;;;4804896;29;20034;-68
2021/03/11 06:52:38;;;;;;;52.70;28.38;;;77.40;1484.80;;;;;;4804603;29;20049;-68
2021/03/11 06:55:07;;;;;;;51.45;26.80;;;77.50;1484.80;;;;;;4840200;29;20086;-68
2021/03/11 06:57:34;;;;;;;49.95;27.95;;;77.60;1484.80;;;;;;4860350;29;20555;-66
2021/03/11 07:00:17;;;;;;;47.15;27.75;;;77.70;1459.20;;;;;;4861600;29;20464;-68
2021/03/11 07:02:53;;;;;;;51.03;27.85;;;102.50;1459.20;;;;;;4861670;29;20480;-68
2021/03/11 07:05:21;;;;;;;50.08;27.33;;;102.80;1433.60;;;;;;4861669;29;20507;-67
2021/03/11 07:07:48;;;;;;;45.35;28.38;;;103.00;1408.00;;;;;;4861619;29;20040;-65
2021/03/11 07:10:24;;;;;;;52.28;29.27;;;103.20;1382.40;;;;;;4861383;29;20422;-67
2021/03/11 07:13:01;;;;;;;48.15;27.08;;;128.10;1382.40;;;;;;4861632;29;20055;-68
2021/03/11 07:15:29;;;;;;;45.60;27.38;;;128.40;1356.80;;;;;;4861982;29;20350;-68
2021/03/11 07:17:56;;;;;;;42.50;25.15;;;128.70;1356.80;;;;;;4861520;29;20492;-67
2021/03/11 07:20:24;;;;;;;40.80;25.67;;;153.60;1331.20;;;;;;4861380;29;20030;-66
2021/03/11 07:23:02;;;;;;;47.83;25.92;;;153.80;1305.60;;;;;;4863822;29;20498;-68
2021/03/11 07:25:37;;;;;;;51.00;27.55;;;154.20;1280.00;;;;;;4867698;29;20061;-68
2021/03/11 07:28:06;;;;;;;44.33;25.67;;;154.50;1254.40;;;;;;4867537;29;20037;-67
2021/03/11 07:30:47;;;;;;;50.40;26.90;;;179.40;1228.80;;;;;;4867314;29;20033;-68
2021/03/11 07:33:14;;;;;;;46.50;27.02;;;179.70;1203.20;;;;;;4867617;29;20029;-67
2021/03/11 07:35:41;;;;;;;50.63;28.48;;;179.90;1177.60;;;;;;4867294;29;20046;-68
2021/03/11 07:38:10;;;;;;;45.92;28.27;;;204.80;1152.00;;;;;;4867361;29;20392;-68
2021/03/11 07:40:36;;;;;;;58.75;30.83;;;205.10;1152.00;;;;;;4867524;29;20053;-68
2021/03/11 07:43:05;;;;;;;57.80;33.60;;;205.30;1152.00;;;;;;4867544;29;20069;-68
2021/03/11 07:45:31;;;;;;;54.80;33.35;;;205.50;1100.80;;;;;;4866970;29;20048;-68
2021/03/11 07:47:57;;;;;;;53.83;32.67;;;230.40;1100.80;;;;;;4867380;29;20029;-69
2021/03/11 07:50:23;;;;;;;54.80;32.58;;;230.60;1075.20;;;;;;4867284;29;20493;-68
2021/03/11 07:52:49;;;;;;;60.60;35.33;;;230.80;1075.20;;;;;;4866902;29;20053;-66
2021/03/11 07:55:15;;;;;;;67.07;35.42;;;231.00;1049.60;;;;;;4867302;29;20029;-67
2021/03/11 07:57:47;;;;;;;63.00;34.45;;;231.20;1049.60;;;;;;4867300;29;20044;-68
2021/03/11 08:00:15;;;;;;;61.53;34.80;;;256.10;1024.00;;;;;;4867345;29;20029;-68
2021/03/11 08:02:52;;;;;;;53.97;33.47;;;256.30;1024.00;;;;;;4867183;29;20053;-68
2021/03/11 08:05:28;;;;;;;67.40;37.10;;;256.60;998.40;;;;;;4867335;29;20037;-68
2021/03/11 08:08:14;;;;;;;60.92;34.13;;;256.70;998.40;;;;;;4867319;29;20391;-68
2021/03/11 08:11:00;;;;;;;60.95;35.75;;;281.60;998.40;;;;;;4867167;29;20018;-68
2021/03/11 08:13:39;;;;;;;56.20;35.00;;;281.90;972.80;;;;;;4866638;29;20025;-69
2021/03/11 08:16:16;;;;;;;61.58;34.83;;;282.10;972.80;;;;;;4866965;29;20480;-68
2021/03/11 08:18:44;;;;;;;56.28;35.40;;;282.30;947.20;;;;;;4867052;29;20465;-68
2021/03/11 08:21:32;;;;;;;57.60;35.20;;;307.20;972.80;;;;;;4866990;29;20104;-68
2021/03/11 08:23:58;;;;;;;58.50;35.70;;;307.40;947.20;;;;;;4810140;29;20042;-68
2021/03/11 08:26:43;;;;;;;72.28;41.40;;;307.60;921.60;;;;;;4809928;29;20478;-65
2021/03/11 08:29:15;;;;;;;69.65;40.58;;;307.70;921.60;;;;;;4810144;29;20039;-68
2021/03/11 08:31:41;;;;;;;77.40;43.65;;;307.90;921.60;;;;;;4810109;29;20035;-68
2021/03/11 08:34:08;;;;;;;70.68;41.20;;;308.10;896.00;;;;;;4807770;29;20034;-67
2021/03/11 08:36:38;;;;;;;69.20;41.22;;;332.90;921.60;;;;;;4806810;29;20178;-68
2021/03/11 08:39:25;;;;;;;72.57;43.30;;;333.10;870.40;;;;;;4807167;29;20080;-69
2021/03/11 08:41:51;;;;;;;72.45;42.88;;;333.30;870.40;;;;;;4807104;29;20050;-67
2021/03/11 08:44:44;;;;;;;72.95;40.22;;;333.50;870.40;;;;;;4806911;29;20472;-68
2021/03/11 08:47:10;;;;;;;75.03;42.85;;;333.70;844.80;;;;;;4806874;29;20031;-68
2021/03/11 08:49:41;;;;;;;68.63;39.20;;;358.50;844.80;;;;;;4806808;29;20478;-68
2021/03/11 08:52:07;;;;;;;67.95;39.83;;;358.70;819.20;;;;;;4806930;29;20072;-67
2021/03/11 08:54:33;;;;;;;66.53;37.20;;;358.90;819.20;;;;;;4806917;29;20046;-68
2021/03/11 08:56:59;;;;;;;52.95;33.30;;;359.00;793.60;;;;;;4806314;29;20576;-68
2021/03/11 08:59:44;;;;;;;59.88;34.53;;;359.10;768.00;;;;;;4807051;29;20112;-69
2021/03/11 09:02:30;;;;;;;52.67;32.20;;;359.30;768.00;;;;;;4860128;29;20041;-66
2021/03/11 09:04:56;;;;;;;47.30;31.08;;;384.10;768.00;;;;;;4863556;29;20128;-69
2021/03/11 09:07:30;;;;;;;47.75;29.60;;;384.30;742.40;;;;;;4863573;29;20105;-69
2021/03/11 09:09:57;;;;;;;48.35;29.48;;;384.40;742.40;;;;;;4863683;29;20400;-69
2021/03/11 09:12:35;;;;;;;72.55;35.58;;;384.60;716.80;;;;;;4863620;29;20037;-67
2021/03/11 09:15:07;;;;;;;73.53;37.30;;;384.70;716.80;;;;;;4863504;29;20493;-69
2021/03/11 09:17:34;;;;;;;66.90;35.05;;;384.90;716.80;;;;;;4863205;29;20045;-67
2021/03/11 09:20:06;;;;;;;55.10;32.53;;;409.60;716.80;;;;;;4862224;29;20030;-68
2021/03/11 09:22:37;;;;;;;50.35;29.83;;;409.70;716.80;;;;;;4863170;29;20129;-68
2021/03/11 09:25:13;;;;;;;41.92;25.55;;;409.90;716.80;;;;;;4863199;29;20025;-68
2021/03/11 09:28:02;;;;;;;44.63;25.77;;;410.00;691.20;;;;;;4863022;29;20488;-69
2021/03/11 09:30:36;;;;;;;37.83;24.92;;;410.20;665.60;;;;;;4863418;29;20108;-69
2021/03/11 09:33:07;;;;;;;39.97;23.87;;;410.30;665.60;;;;;;4863265;29;20025;-68
2021/03/11 09:35:33;;;;;;;36.67;22.45;;;410.40;665.60;;;;;;4862703;29;20068;-68
2021/03/11 09:38:03;;;;;;;31.98;20.90;;;435.20;665.60;;;;;;4862929;29;20033;-68
2021/03/11 09:40:32;;;;;;;31.52;21.45;;;435.30;614.40;;;;;;4863076;29;20063;-67
2021/03/11 09:43:21;;;;;;;33.88;21.77;;;435.30;640.00;;;;;;4862949;29;20033;-68
2021/03/11 09:46:00;;;;;;;30.10;19.90;;;435.40;614.40;;;;;;4862686;29;20025;-69
2021/03/11 09:48:27;;;;;;;27.95;18.77;;;435.50;588.80;;;;;;4863047;29;20033;-68
2021/03/11 09:50:54;;;;;;;22.77;15.65;;;435.60;614.40;;;;;;4862742;29;20085;-68
2021/03/11 09:53:21;;;;;;;26.13;15.90;;;435.70;563.20;;;;;;4862953;29;20044;-68
2021/03/11 09:55:52;;;;;;;24.38;16.50;;;435.90;563.20;;;;;;4863387;29;20025;-68
2021/03/11 09:58:20;;;;;;;21.95;16.02;;;435.90;563.20;;;;;;4862506;29;20053;-66
2021/03/11 10:00:47;;;;;;;23.75;15.98;;;435.90;563.20;;;;;;4863140;29;20494;-68
2021/03/11 10:03:21;;;;;;;23.27;15.25;;;436.00;537.60;;;;;;4862665;29;20064;-68
2021/03/11 10:05:55;;;;;;;20.15;14.10;;;436.00;563.20;;;;;;4862425;29;20021;-69
2021/03/11 10:08:40;;;;;;;24.10;15.65;;;436.10;512.00;;;;;;4862365;29;20030;-67
2021/03/11 10:11:16;;;;;;;23.08;15.73;;;436.10;512.00;;;;;;4862568;29;20362;-68
2021/03/11 10:13:42;;;;;;;19.50;14.15;;;460.80;537.60;;;;;;4862387;29;20037;-68
2021/03/11 10:16:09;;;;;;;25.58;16.35;;;460.90;537.60;;;;;;4862235;29;20033;-69
2021/03/11 10:18:35;;;;;;;20.85;14.60;;;461.00;512.00;;;;;;4862285;29;20030;-68
2021/03/11 10:21:08;;;;;;;19.77;14.00;;;461.10;537.60;;;;;;4862347;29;20041;-66
2021/03/11 10:23:36;;;;;;;21.20;14.55;;;461.20;512.00;;;;;;4862346;29;20025;-69
2021/03/11 10:26:31;;;;;;;24.13;15.70;;;461.20;512.00;;;;;;4862097;29;20041;-69
2021/03/11 10:29:04;;;;;;;24.60;18.58;;;461.30;512.00;;;;;;4862262;29;20040;-68
2021/03/11 10:31:30;;;;;;;30.47;16.77;;;461.30;512.00;;;;;;4862043;29;20121;-68
2021/03/11 10:34:14;;;;;;;24.75;17.85;;;461.40;537.60;;;;;;4862115;29;20035;-68
2021/03/11 10:36:54;;;;;;;21.75;15.95;;;461.50;537.60;;;;;;4862160;29;20124;-68
2021/03/11 10:39:20;;;;;;;22.05;14.15;;;461.50;486.40;;;;;;4862077;29;20041;-68
2021/03/11 10:42:04;;;;;;;23.58;14.40;;;461.60;486.40;;;;;;4861939;29;20153;-67
2021/03/11 10:44:34;;;;;;;22.55;15.15;;;461.70;486.40;;;;;;4862071;29;20404;-69
2021/03/11 10:47:17;;;;;;;26.05;14.52;;;486.40;486.40;;;;;;4861801;29;20040;-69
2021/03/11 10:49:44;;;;;;;25.58;15.60;;;486.40;460.80;;;;;;4861808;29;20061;-68
2021/03/11 10:52:11;;;;;;;22.13;14.13;;;486.50;486.40;;;;;;4861858;29;20477;-69
2021/03/11 10:54:39;;;;;;;20.92;14.25;;;486.50;486.40;;;;;;4861792;29;20037;-68
2021/03/11 10:57:10;;;;;;;21.25;14.13;;;486.50;460.80;;;;;;4861227;29;20067;-68
2021/03/11 10:59:52;;;;;;;19.42;13.25;;;486.60;460.80;;;;;;4861958;29;20021;-69
2021/03/11 11:02:19;;;;;;;31.27;16.65;;;486.70;460.80;;;;;;4861484;29;20065;-69
2021/03/11 11:04:45;;;;;;;22.42;15.07;;;486.70;460.80;;;;;;4861628;29;20081;-64
2021/03/11 11:07:12;;;;;;;29.75;14.35;;;486.60;460.80;;;;;;4861898;29;20041;-69
2021/03/11 11:09:39;;;;;;;22.20;13.65;;;486.50;460.80;;;;;;4861741;29;20120;-68
2021/03/11 11:12:08;;;;;;;19.50;13.52;;;486.50;460.80;;;;;;4862066;29;20445;-67
2021/03/11 11:14:35;;;;;;;19.33;13.93;;;486.50;460.80;;;;;;4861498;29;20036;-68
2021/03/11 11:17:00;;;;;;;17.75;13.10;;;486.50;460.80;;;;;;4861541;29;20476;-67
2021/03/11 11:19:26;;;;;;;25.58;14.35;;;486.60;460.80;;;;;;4861622;29;20046;-68
2021/03/11 11:21:52;;;;;;;20.05;14.18;;;486.60;460.80;;;;;;4861401;29;20522;-67
2021/03/11 11:24:18;;;;;;;24.75;13.68;;;486.60;460.80;;;;;;4859756;29;20034;-66
2021/03/11 11:26:43;;;;;;;19.70;13.68;;;486.70;460.80;;;;;;4861897;29;20034;-68
2021/03/11 11:29:09;;;;;;;18.52;13.52;;;486.70;435.20;;;;;;4861687;29;20025;-68
2021/03/11 11:31:35;;;;;;;34.63;23.58;;;486.60;435.20;;;;;;4861383;29;20415;-69
2021/03/11 11:34:01;;;;;;;27.35;20.40;;;486.70;435.20;;;;;;4861898;29;20029;-68
2021/03/11 11:36:26;;;;;;;26.25;17.35;;;486.70;435.20;;;;;;4860915;29;20057;-68
2021/03/11 11:38:52;;;;;;;23.83;14.80;;;486.70;460.80;;;;;;4861457;29;20376;-69
2021/03/11 11:41:19;;;;;;;24.05;14.77;;;486.70;435.20;;;;;;4861197;29;20030;-68
2021/03/11 11:43:45;;;;;;;18.85;13.32;;;486.60;435.20;;;;;;4861296;29;20032;-69
2021/03/11 11:46:11;;;;;;;21.55;13.10;;;486.60;435.20;;;;;;4861333;29;20413;-68
2021/03/11 11:48:37;;;;;;;24.52;14.13;;;486.50;460.80;;;;;;4861286;29;20029;-66
2021/03/11 11:51:04;;;;;;;22.08;14.75;;;486.40;435.20;;;;;;4861245;29;20033;-69
2021/03/11 11:53:30;;;;;;;27.88;14.80;;;486.40;435.20;;;;;;4861040;29;20040;-66
2021/03/11 11:55:56;;;;;;;23.02;16.30;;;486.40;460.80;;;;;;4861321;29;20104;-69
2021/03/11 11:58:21;;;;;;;20.80;15.30;;;486.50;460.80;;;;;;4861161;29;20034;-68
2021/03/11 12:00:47;;;;;;;22.23;14.63;;;486.50;460.80;;;;;;4861258;29;20032;-69
2021/03/11 12:03:13;;;;;;;22.75;15.50;;;486.50;460.80;;;;;;4861270;29;20045;-68
2021/03/11 12:05:39;;;;;;;20.70;15.20;;;486.50;460.80;;;;;;4861317;29;20476;-66
2021/03/11 12:08:05;;;;;;;23.00;15.52;;;486.50;435.20;;;;;;4860714;29;20567;-68
2021/03/11 12:10:31;;;;;;;21.13;14.98;;;486.50;435.20;;;;;;4864031;29;20062;-69
2021/03/11 12:12:57;;;;;;;21.02;15.55;;;486.50;460.80;;;;;;4862991;29;20037;-69